sensor_id;sensor_type;location;lat;lon;timestamp;P1;durP1;ratioP1;P2;durP2;ratioP2
8159;SDS011;27404;52.398;9.646;2023-12-20T00:01:34;13.13;;;6.43;;
8159;SDS011;27404;52.398;9.646;2023-12-20T00:04:00;9.80;;;6.03;;
8159;SDS011;27404;52.398;9.646;2023-12-20T00:06:26;11.47;;;6.53;;
8159;SDS011;27404;52.398;9.646;2023-12-20T00:08:51;12.77;;;7.17;;
8159;SDS011;27404;52.398;9.646;2023-12-20T00:11:17;12.23;;;6.30;;
8159;SDS011;27404;52.398;9.646;2023-12-20T00:13:42;18.90;;;6.00;;
8159;SDS011;27404;52.398;9.646;2023-12-20T00:16:08;8.90;;;5.10;;
8159;SDS011;27404;52.398;9.646;2023-12-20T00:18:33;12.00;;;5.10;;
8159;SDS011;27404;52.398;9.646;2023-12-20T00:20:58;14.73;;;5.60;;
8159;SDS011;27404;52.398;9.646;2023-12-20T00:23:24;10.93;;;4.40;;
8159;SDS011;27404;52.398;9.646;2023-12-20T00:25:49;15.73;;;4.53;;
8159;SDS011;27404;52.398;9.646;2023-12-20T00:28:15;8.00;;;3.70;;
8159;SDS011;27404;52.398;9.646;2023-12-20T00:30:40;11.30;;;4.90;;
8159;SDS011;27404;52.398;9.646;2023-12-20T00:33:06;10.67;;;4.37;;
8159;SDS011;27404;52.398;9.646;2023-12-20T00:35:31;8.53;;;3.70;;
8159;SDS011;27404;52.398;9.646;2023-12-20T00:37:58;11.37;;;4.43;;
8159;SDS011;27404;52.398;9.646;2023-12-20T00:40:23;12.47;;;4.47;;
8159;SDS011;27404;52.398;9.646;2023-12-20T00:42:49;11.37;;;4.60;;
8159;SDS011;27404;52.398;9.646;2023-12-20T00:45:14;11.50;;;4.23;;
8159;SDS011;27404;52.398;9.646;2023-12-20T00:47:40;10.47;;;4.07;;
8159;SDS011;27404;52.398;9.646;2023-12-20T00:50:06;14.60;;;4.53;;
8159;SDS011;27404;52.398;9.646;2023-12-20T00:52:31;12.20;;;3.83;;
8159;SDS011;27404;52.398;9.646;2023-12-20T00:54:57;17.33;;;3.20;;
8159;SDS011;27404;52.398;9.646;2023-12-20T00:57:22;9.43;;;3.97;;
8159;SDS011;27404;52.398;9.646;2023-12-20T00:59:48;11.93;;;3.90;;
8159;SDS011;27404;52.398;9.646;2023-12-20T01:02:13;9.20;;;3.20;;
8159;SDS011;27404;52.398;9.646;2023-12-20T01:04:39;14.77;;;3.40;;
8159;SDS011;27404;52.398;9.646;2023-12-20T01:07:04;13.70;;;3.27;;
8159;SDS011;27404;52.398;9.646;2023-12-20T01:09:30;15.70;;;3.43;;
8159;SDS011;27404;52.398;9.646;2023-12-20T01:11:55;11.77;;;2.83;;
8159;SDS011;27404;52.398;9.646;2023-12-20T01:14:21;10.80;;;2.63;;
8159;SDS011;27404;52.398;9.646;2023-12-20T01:16:46;9.33;;;2.80;;
8159;SDS011;27404;52.398;9.646;2023-12-20T01:19:12;12.53;;;3.10;;
8159;SDS011;27404;52.398;9.646;2023-12-20T01:21:39;9.03;;;3.43;;
8159;SDS011;27404;52.398;9.646;2023-12-20T01:24:04;12.27;;;2.70;;
8159;SDS011;27404;52.398;9.646;2023-12-20T01:26:30;13.10;;;3.13;;
8159;SDS011;27404;52.398;9.646;2023-12-20T01:28:55;8.73;;;3.00;;
8159;SDS011;27404;52.398;9.646;2023-12-20T01:31:21;12.23;;;3.00;;
8159;SDS011;27404;52.398;9.646;2023-12-20T01:33:46;10.40;;;3.87;;
8159;SDS011;27404;52.398;9.646;2023-12-20T01:36:12;10.77;;;2.63;;
8159;SDS011;27404;52.398;9.646;2023-12-20T01:38:37;8.13;;;2.87;;
8159;SDS011;27404;52.398;9.646;2023-12-20T01:41:03;9.40;;;2.57;;
8159;SDS011;27404;52.398;9.646;2023-12-20T01:43:29;12.87;;;2.60;;
8159;SDS011;27404;52.398;9.646;2023-12-20T01:45:55;7.27;;;2.20;;
8159;SDS011;27404;52.398;9.646;2023-12-20T01:48:22;7.73;;;2.30;;
8159;SDS011;27404;52.398;9.646;2023-12-20T01:50:48;10.03;;;2.43;;
8159;SDS011;27404;52.398;9.646;2023-12-20T01:53:14;12.17;;;3.17;;
8159;SDS011;27404;52.398;9.646;2023-12-20T01:55:41;11.47;;;2.20;;
8159;SDS011;27404;52.398;9.646;2023-12-20T01:58:07;5.40;;;2.00;;
8159;SDS011;27404;52.398;9.646;2023-12-20T02:00:35;10.50;;;2.63;;
8159;SDS011;27404;52.398;9.646;2023-12-20T02:03:02;15.80;;;2.57;;
8159;SDS011;27404;52.398;9.646;2023-12-20T02:05:29;8.70;;;2.37;;
8159;SDS011;27404;52.398;9.646;2023-12-20T02:07:55;7.53;;;1.93;;
8159;SDS011;27404;52.398;9.646;2023-12-20T02:10:21;15.23;;;2.40;;
8159;SDS011;27404;52.398;9.646;2023-12-20T02:12:47;12.20;;;2.47;;
8159;SDS011;27404;52.398;9.646;2023-12-20T02:15:12;14.40;;;2.60;;
8159;SDS011;27404;52.398;9.646;2023-12-20T02:17:38;13.53;;;2.60;;
8159;SDS011;27404;52.398;9.646;2023-12-20T02:20:05;9.23;;;2.50;;
8159;SDS011;27404;52.398;9.646;2023-12-20T02:22:31;9.83;;;2.47;;
8159;SDS011;27404;52.398;9.646;2023-12-20T02:24:57;9.83;;;2.40;;
8159;SDS011;27404;52.398;9.646;2023-12-20T02:27:22;10.90;;;2.60;;
8159;SDS011;27404;52.398;9.646;2023-12-20T02:29:48;9.93;;;2.87;;
8159;SDS011;27404;52.398;9.646;2023-12-20T02:32:15;6.33;;;2.57;;
8159;SDS011;27404;52.398;9.646;2023-12-20T02:34:42;11.63;;;3.17;;
8159;SDS011;27404;52.398;9.646;2023-12-20T02:37:07;12.57;;;3.50;;
8159;SDS011;27404;52.398;9.646;2023-12-20T02:39:33;9.93;;;3.17;;
8159;SDS011;27404;52.398;9.646;2023-12-20T02:41:58;10.90;;;3.50;;
8159;SDS011;27404;52.398;9.646;2023-12-20T02:44:31;13.50;;;3.67;;
8159;SDS011;27404;52.398;9.646;2023-12-20T02:46:56;13.53;;;4.13;;
8159;SDS011;27404;52.398;9.646;2023-12-20T02:49:21;9.20;;;3.03;;
8159;SDS011;27404;52.398;9.646;2023-12-20T02:51:47;11.07;;;3.67;;
8159;SDS011;27404;52.398;9.646;2023-12-20T02:54:12;15.70;;;3.70;;
8159;SDS011;27404;52.398;9.646;2023-12-20T02:56:38;10.37;;;3.30;;
8159;SDS011;27404;52.398;9.646;2023-12-20T02:59:03;12.53;;;3.20;;
8159;SDS011;27404;52.398;9.646;2023-12-20T03:01:31;8.33;;;3.40;;
8159;SDS011;27404;52.398;9.646;2023-12-20T03:03:57;9.70;;;3.40;;
8159;SDS011;27404;52.398;9.646;2023-12-20T03:06:22;10.97;;;2.70;;
8159;SDS011;27404;52.398;9.646;2023-12-20T03:08:48;12.70;;;2.90;;
8159;SDS011;27404;52.398;9.646;2023-12-20T03:11:13;17.20;;;3.43;;
8159;SDS011;27404;52.398;9.646;2023-12-20T03:13:39;9.93;;;2.70;;
8159;SDS011;27404;52.398;9.646;2023-12-20T03:16:08;8.27;;;2.53;;
8159;SDS011;27404;52.398;9.646;2023-12-20T03:18:34;10.87;;;2.57;;
8159;SDS011;27404;52.398;9.646;2023-12-20T03:21:00;8.57;;;2.17;;
8159;SDS011;27404;52.398;9.646;2023-12-20T03:23:25;12.93;;;2.40;;
8159;SDS011;27404;52.398;9.646;2023-12-20T03:25:52;17.83;;;2.17;;
8159;SDS011;27404;52.398;9.646;2023-12-20T03:28:17;12.37;;;2.20;;
8159;SDS011;27404;52.398;9.646;2023-12-20T03:30:43;10.20;;;1.80;;
8159;SDS011;27404;52.398;9.646;2023-12-20T03:33:09;11.10;;;1.90;;
8159;SDS011;27404;52.398;9.646;2023-12-20T03:35:34;11.13;;;2.13;;
8159;SDS011;27404;52.398;9.646;2023-12-20T03:38:00;8.20;;;1.67;;
8159;SDS011;27404;52.398;9.646;2023-12-20T03:40:25;10.67;;;1.80;;
8159;SDS011;27404;52.398;9.646;2023-12-20T03:42:51;8.87;;;1.43;;
8159;SDS011;27404;52.398;9.646;2023-12-20T03:45:16;7.13;;;1.70;;
8159;SDS011;27404;52.398;9.646;2023-12-20T03:47:42;8.23;;;1.60;;
8159;SDS011;27404;52.398;9.646;2023-12-20T03:50:07;6.63;;;1.30;;
8159;SDS011;27404;52.398;9.646;2023-12-20T03:52:33;9.47;;;2.10;;
8159;SDS011;27404;52.398;9.646;2023-12-20T03:54:58;5.33;;;1.40;;
8159;SDS011;27404;52.398;9.646;2023-12-20T03:57:23;9.80;;;2.20;;
8159;SDS011;27404;52.398;9.646;2023-12-20T03:59:49;8.37;;;1.93;;
8159;SDS011;27404;52.398;9.646;2023-12-20T04:02:14;6.77;;;1.87;;
8159;SDS011;27404;52.398;9.646;2023-12-20T04:04:40;13.93;;;1.90;;
8159;SDS011;27404;52.398;9.646;2023-12-20T04:07:07;11.37;;;2.70;;
8159;SDS011;27404;52.398;9.646;2023-12-20T04:09:32;10.50;;;1.80;;
8159;SDS011;27404;52.398;9.646;2023-12-20T04:11:58;8.67;;;2.10;;
8159;SDS011;27404;52.398;9.646;2023-12-20T04:14:23;4.87;;;1.83;;
8159;SDS011;27404;52.398;9.646;2023-12-20T04:16:49;10.20;;;2.13;;
8159;SDS011;27404;52.398;9.646;2023-12-20T04:19:15;8.23;;;2.03;;
8159;SDS011;27404;52.398;9.646;2023-12-20T04:21:40;9.90;;;2.30;;
8159;SDS011;27404;52.398;9.646;2023-12-20T04:24:06;7.20;;;2.30;;
8159;SDS011;27404;52.398;9.646;2023-12-20T04:26:32;10.77;;;2.03;;
8159;SDS011;27404;52.398;9.646;2023-12-20T04:28:57;11.27;;;2.70;;
8159;SDS011;27404;52.398;9.646;2023-12-20T04:31:22;6.73;;;1.97;;
8159;SDS011;27404;52.398;9.646;2023-12-20T04:33:48;12.80;;;2.90;;
8159;SDS011;27404;52.398;9.646;2023-12-20T04:36:14;10.17;;;2.90;;
8159;SDS011;27404;52.398;9.646;2023-12-20T04:38:39;12.10;;;2.63;;
8159;SDS011;27404;52.398;9.646;2023-12-20T04:41:05;10.90;;;2.67;;
8159;SDS011;27404;52.398;9.646;2023-12-20T04:43:30;8.00;;;2.40;;
8159;SDS011;27404;52.398;9.646;2023-12-20T04:45:56;14.90;;;2.73;;
8159;SDS011;27404;52.398;9.646;2023-12-20T04:48:21;13.73;;;3.00;;
8159;SDS011;27404;52.398;9.646;2023-12-20T04:50:46;14.97;;;2.60;;
8159;SDS011;27404;52.398;9.646;2023-12-20T04:53:12;11.67;;;3.33;;
8159;SDS011;27404;52.398;9.646;2023-12-20T04:55:37;9.87;;;3.00;;
8159;SDS011;27404;52.398;9.646;2023-12-20T04:58:04;12.23;;;3.03;;
8159;SDS011;27404;52.398;9.646;2023-12-20T05:00:29;10.37;;;2.40;;
8159;SDS011;27404;52.398;9.646;2023-12-20T05:02:55;9.60;;;2.37;;
8159;SDS011;27404;52.398;9.646;2023-12-20T05:05:20;19.20;;;3.77;;
8159;SDS011;27404;52.398;9.646;2023-12-20T05:07:46;13.83;;;2.80;;
8159;SDS011;27404;52.398;9.646;2023-12-20T05:10:11;9.30;;;2.83;;
8159;SDS011;27404;52.398;9.646;2023-12-20T05:12:37;8.17;;;2.83;;
8159;SDS011;27404;52.398;9.646;2023-12-20T05:15:02;8.33;;;3.13;;
8159;SDS011;27404;52.398;9.646;2023-12-20T05:17:28;13.53;;;2.70;;
8159;SDS011;27404;52.398;9.646;2023-12-20T05:19:53;13.40;;;2.77;;
8159;SDS011;27404;52.398;9.646;2023-12-20T05:22:19;14.77;;;3.00;;
8159;SDS011;27404;52.398;9.646;2023-12-20T05:24:45;11.97;;;3.03;;
8159;SDS011;27404;52.398;9.646;2023-12-20T05:27:10;13.10;;;3.17;;
8159;SDS011;27404;52.398;9.646;2023-12-20T05:29:36;18.67;;;3.30;;
8159;SDS011;27404;52.398;9.646;2023-12-20T05:32:02;11.00;;;2.90;;
8159;SDS011;27404;52.398;9.646;2023-12-20T05:34:29;15.43;;;3.43;;
8159;SDS011;27404;52.398;9.646;2023-12-20T05:36:55;11.00;;;3.00;;
8159;SDS011;27404;52.398;9.646;2023-12-20T05:39:21;12.57;;;3.03;;
8159;SDS011;27404;52.398;9.646;2023-12-20T05:41:46;16.20;;;3.43;;
8159;SDS011;27404;52.398;9.646;2023-12-20T05:44:13;13.63;;;3.40;;
8159;SDS011;27404;52.398;9.646;2023-12-20T05:46:38;12.77;;;3.47;;
8159;SDS011;27404;52.398;9.646;2023-12-20T05:49:05;11.03;;;2.90;;
8159;SDS011;27404;52.398;9.646;2023-12-20T05:51:30;11.60;;;2.63;;
8159;SDS011;27404;52.398;9.646;2023-12-20T05:53:56;12.23;;;3.20;;
8159;SDS011;27404;52.398;9.646;2023-12-20T05:56:21;12.77;;;3.43;;
8159;SDS011;27404;52.398;9.646;2023-12-20T05:58:47;13.73;;;4.40;;
8159;SDS011;27404;52.398;9.646;2023-12-20T06:01:14;14.40;;;3.23;;
8159;SDS011;27404;52.398;9.646;2023-12-20T06:03:42;12.63;;;3.37;;
8159;SDS011;27404;52.398;9.646;2023-12-20T06:06:08;15.50;;;4.37;;
8159;SDS011;27404;52.398;9.646;2023-12-20T06:08:34;11.50;;;3.17;;
8159;SDS011;27404;52.398;9.646;2023-12-20T06:10:59;16.00;;;3.60;;
8159;SDS011;27404;52.398;9.646;2023-12-20T06:13:25;16.70;;;3.53;;
8159;SDS011;27404;52.398;9.646;2023-12-20T06:15:52;19.63;;;3.50;;
8159;SDS011;27404;52.398;9.646;2023-12-20T06:18:17;15.13;;;4.17;;
8159;SDS011;27404;52.398;9.646;2023-12-20T06:20:42;17.13;;;3.77;;
8159;SDS011;27404;52.398;9.646;2023-12-20T06:23:08;15.13;;;4.30;;
8159;SDS011;27404;52.398;9.646;2023-12-20T06:25:33;9.80;;;3.27;;
8159;SDS011;27404;52.398;9.646;2023-12-20T06:27:59;12.67;;;3.23;;
8159;SDS011;27404;52.398;9.646;2023-12-20T06:30:24;15.07;;;3.93;;
8159;SDS011;27404;52.398;9.646;2023-12-20T06:32:52;19.20;;;4.00;;
8159;SDS011;27404;52.398;9.646;2023-12-20T06:35:18;11.23;;;4.13;;
8159;SDS011;27404;52.398;9.646;2023-12-20T06:37:44;19.50;;;3.97;;
8159;SDS011;27404;52.398;9.646;2023-12-20T06:40:10;17.53;;;4.03;;
8159;SDS011;27404;52.398;9.646;2023-12-20T06:42:36;10.47;;;3.17;;
8159;SDS011;27404;52.398;9.646;2023-12-20T06:45:01;15.30;;;3.87;;
8159;SDS011;27404;52.398;9.646;2023-12-20T06:47:27;11.93;;;3.30;;
8159;SDS011;27404;52.398;9.646;2023-12-20T06:49:52;22.73;;;4.50;;
8159;SDS011;27404;52.398;9.646;2023-12-20T06:52:18;16.33;;;3.90;;
8159;SDS011;27404;52.398;9.646;2023-12-20T06:54:43;13.47;;;3.57;;
8159;SDS011;27404;52.398;9.646;2023-12-20T06:57:09;15.67;;;3.83;;
8159;SDS011;27404;52.398;9.646;2023-12-20T06:59:38;16.70;;;3.70;;
8159;SDS011;27404;52.398;9.646;2023-12-20T07:02:05;12.43;;;3.60;;
8159;SDS011;27404;52.398;9.646;2023-12-20T07:04:30;18.77;;;3.57;;
8159;SDS011;27404;52.398;9.646;2023-12-20T07:06:56;15.33;;;3.77;;
8159;SDS011;27404;52.398;9.646;2023-12-20T07:09:22;12.37;;;3.60;;
8159;SDS011;27404;52.398;9.646;2023-12-20T07:11:47;14.53;;;3.40;;
8159;SDS011;27404;52.398;9.646;2023-12-20T07:14:13;14.40;;;3.73;;
8159;SDS011;27404;52.398;9.646;2023-12-20T07:16:39;13.30;;;4.00;;
8159;SDS011;27404;52.398;9.646;2023-12-20T07:19:05;16.93;;;3.63;;
8159;SDS011;27404;52.398;9.646;2023-12-20T07:21:31;15.03;;;3.20;;
8159;SDS011;27404;52.398;9.646;2023-12-20T07:23:57;20.53;;;3.93;;
8159;SDS011;27404;52.398;9.646;2023-12-20T07:26:22;16.07;;;3.40;;
8159;SDS011;27404;52.398;9.646;2023-12-20T07:28:48;20.13;;;3.97;;
8159;SDS011;27404;52.398;9.646;2023-12-20T07:31:15;20.70;;;4.13;;
8159;SDS011;27404;52.398;9.646;2023-12-20T07:33:41;14.37;;;3.90;;
8159;SDS011;27404;52.398;9.646;2023-12-20T07:36:06;19.93;;;3.97;;
8159;SDS011;27404;52.398;9.646;2023-12-20T07:38:32;13.60;;;3.30;;
8159;SDS011;27404;52.398;9.646;2023-12-20T07:40:58;16.57;;;4.30;;
8159;SDS011;27404;52.398;9.646;2023-12-20T07:43:23;18.00;;;4.00;;
8159;SDS011;27404;52.398;9.646;2023-12-20T07:45:49;14.83;;;3.83;;
8159;SDS011;27404;52.398;9.646;2023-12-20T07:48:14;17.33;;;3.40;;
8159;SDS011;27404;52.398;9.646;2023-12-20T07:50:40;14.13;;;3.93;;
8159;SDS011;27404;52.398;9.646;2023-12-20T07:53:07;15.63;;;3.60;;
8159;SDS011;27404;52.398;9.646;2023-12-20T07:55:32;14.40;;;3.17;;
8159;SDS011;27404;52.398;9.646;2023-12-20T07:57:59;14.47;;;4.23;;
8159;SDS011;27404;52.398;9.646;2023-12-20T08:00:25;15.80;;;4.07;;
8159;SDS011;27404;52.398;9.646;2023-12-20T08:02:50;16.07;;;4.33;;
8159;SDS011;27404;52.398;9.646;2023-12-20T08:05:16;14.90;;;4.33;;
8159;SDS011;27404;52.398;9.646;2023-12-20T08:07:41;19.57;;;5.00;;
8159;SDS011;27404;52.398;9.646;2023-12-20T08:10:07;19.90;;;4.10;;
8159;SDS011;27404;52.398;9.646;2023-12-20T08:12:32;19.43;;;4.33;;
8159;SDS011;27404;52.398;9.646;2023-12-20T08:14:58;17.37;;;4.50;;
8159;SDS011;27404;52.398;9.646;2023-12-20T08:17:24;21.70;;;4.70;;
8159;SDS011;27404;52.398;9.646;2023-12-20T08:19:49;16.60;;;5.00;;
8159;SDS011;27404;52.398;9.646;2023-12-20T08:22:16;14.87;;;4.10;;
8159;SDS011;27404;52.398;9.646;2023-12-20T08:24:41;14.97;;;4.27;;
8159;SDS011;27404;52.398;9.646;2023-12-20T08:27:06;12.63;;;3.77;;
8159;SDS011;27404;52.398;9.646;2023-12-20T08:29:32;15.57;;;3.80;;
8159;SDS011;27404;52.398;9.646;2023-12-20T08:31:57;14.00;;;4.23;;
8159;SDS011;27404;52.398;9.646;2023-12-20T08:34:23;21.07;;;4.37;;
8159;SDS011;27404;52.398;9.646;2023-12-20T08:36:48;19.93;;;4.03;;
8159;SDS011;27404;52.398;9.646;2023-12-20T08:39:16;15.10;;;4.30;;
8159;SDS011;27404;52.398;9.646;2023-12-20T08:41:41;13.80;;;3.60;;
8159;SDS011;27404;52.398;9.646;2023-12-20T08:44:07;15.13;;;4.20;;
8159;SDS011;27404;52.398;9.646;2023-12-20T08:46:32;15.13;;;3.50;;
8159;SDS011;27404;52.398;9.646;2023-12-20T08:48:58;12.90;;;3.50;;
8159;SDS011;27404;52.398;9.646;2023-12-20T08:51:23;12.60;;;3.70;;
8159;SDS011;27404;52.398;9.646;2023-12-20T08:53:50;12.40;;;3.53;;
8159;SDS011;27404;52.398;9.646;2023-12-20T08:56:16;12.20;;;3.93;;
8159;SDS011;27404;52.398;9.646;2023-12-20T08:58:43;14.60;;;3.93;;
8159;SDS011;27404;52.398;9.646;2023-12-20T09:01:09;14.83;;;3.40;;
8159;SDS011;27404;52.398;9.646;2023-12-20T09:03:35;14.03;;;3.83;;
8159;SDS011;27404;52.398;9.646;2023-12-20T09:06:00;15.33;;;3.00;;
8159;SDS011;27404;52.398;9.646;2023-12-20T09:08:26;15.80;;;3.40;;
8159;SDS011;27404;52.398;9.646;2023-12-20T09:10:51;12.20;;;3.03;;
8159;SDS011;27404;52.398;9.646;2023-12-20T09:13:17;16.27;;;3.50;;
8159;SDS011;27404;52.398;9.646;2023-12-20T09:15:42;12.40;;;3.17;;
8159;SDS011;27404;52.398;9.646;2023-12-20T09:18:08;13.30;;;2.93;;
8159;SDS011;27404;52.398;9.646;2023-12-20T09:20:33;14.70;;;3.43;;
8159;SDS011;27404;52.398;9.646;2023-12-20T09:22:59;12.97;;;4.30;;
8159;SDS011;27404;52.398;9.646;2023-12-20T09:25:25;13.70;;;3.50;;
8159;SDS011;27404;52.398;9.646;2023-12-20T09:27:51;18.33;;;3.67;;
8159;SDS011;27404;52.398;9.646;2023-12-20T09:30:17;15.17;;;3.40;;
8159;SDS011;27404;52.398;9.646;2023-12-20T09:32:43;10.63;;;3.50;;
8159;SDS011;27404;52.398;9.646;2023-12-20T09:35:08;18.47;;;3.67;;
8159;SDS011;27404;52.398;9.646;2023-12-20T09:37:34;15.50;;;3.33;;
8159;SDS011;27404;52.398;9.646;2023-12-20T09:39:59;15.90;;;3.73;;
8159;SDS011;27404;52.398;9.646;2023-12-20T09:42:29;12.97;;;4.03;;
8159;SDS011;27404;52.398;9.646;2023-12-20T09:45:06;11.87;;;3.83;;
8159;SDS011;27404;52.398;9.646;2023-12-20T09:47:34;14.10;;;3.60;;
8159;SDS011;27404;52.398;9.646;2023-12-20T09:50:00;12.37;;;2.90;;
8159;SDS011;27404;52.398;9.646;2023-12-20T09:52:27;12.10;;;2.77;;
8159;SDS011;27404;52.398;9.646;2023-12-20T09:54:53;10.87;;;2.60;;
8159;SDS011;27404;52.398;9.646;2023-12-20T09:57:20;14.63;;;2.67;;
8159;SDS011;27404;52.398;9.646;2023-12-20T09:59:46;16.37;;;3.70;;
8159;SDS011;27404;52.398;9.646;2023-12-20T10:02:12;12.33;;;3.37;;
8159;SDS011;27404;52.398;9.646;2023-12-20T10:04:46;12.20;;;2.70;;
8159;SDS011;27404;52.398;9.646;2023-12-20T10:07:15;11.80;;;2.90;;
8159;SDS011;27404;52.398;9.646;2023-12-20T10:09:41;12.23;;;2.90;;
8159;SDS011;27404;52.398;9.646;2023-12-20T10:12:07;10.23;;;3.13;;
8159;SDS011;27404;52.398;9.646;2023-12-20T10:14:33;11.77;;;3.30;;
8159;SDS011;27404;52.398;9.646;2023-12-20T10:17:02;11.93;;;3.50;;
8159;SDS011;27404;52.398;9.646;2023-12-20T10:19:28;18.20;;;3.23;;
8159;SDS011;27404;52.398;9.646;2023-12-20T10:21:54;14.67;;;4.03;;
8159;SDS011;27404;52.398;9.646;2023-12-20T10:24:19;11.33;;;3.17;;
8159;SDS011;27404;52.398;9.646;2023-12-20T10:26:45;14.43;;;3.27;;
8159;SDS011;27404;52.398;9.646;2023-12-20T10:29:11;12.87;;;3.63;;
8159;SDS011;27404;52.398;9.646;2023-12-20T10:31:36;11.83;;;3.03;;
8159;SDS011;27404;52.398;9.646;2023-12-20T10:34:03;12.50;;;3.40;;
8159;SDS011;27404;52.398;9.646;2023-12-20T10:36:30;13.70;;;3.20;;
8159;SDS011;27404;52.398;9.646;2023-12-20T10:38:57;16.33;;;3.57;;
8159;SDS011;27404;52.398;9.646;2023-12-20T10:41:30;12.07;;;3.43;;
8159;SDS011;27404;52.398;9.646;2023-12-20T10:44:04;12.00;;;2.87;;
8159;SDS011;27404;52.398;9.646;2023-12-20T10:46:33;12.27;;;3.63;;
8159;SDS011;27404;52.398;9.646;2023-12-20T10:48:59;10.93;;;3.10;;
8159;SDS011;27404;52.398;9.646;2023-12-20T10:51:27;12.47;;;3.17;;
8159;SDS011;27404;52.398;9.646;2023-12-20T10:53:55;11.33;;;3.40;;
8159;SDS011;27404;52.398;9.646;2023-12-20T10:56:21;11.30;;;2.87;;
8159;SDS011;27404;52.398;9.646;2023-12-20T10:58:48;11.27;;;3.50;;
8159;SDS011;27404;52.398;9.646;2023-12-20T11:01:14;7.37;;;3.07;;
8159;SDS011;27404;52.398;9.646;2023-12-20T11:03:45;15.60;;;3.60;;
8159;SDS011;27404;52.398;9.646;2023-12-20T11:09:01;13.60;;;3.37;;
8159;SDS011;27404;52.398;9.646;2023-12-20T11:11:42;10.23;;;3.50;;
8159;SDS011;27404;52.398;9.646;2023-12-20T11:14:22;8.10;;;3.00;;
8159;SDS011;27404;52.398;9.646;2023-12-20T11:17:13;13.90;;;3.50;;
8159;SDS011;27404;52.398;9.646;2023-12-20T11:22:22;14.13;;;4.23;;
8159;SDS011;27404;52.398;9.646;2023-12-20T11:24:49;10.40;;;3.63;;
8159;SDS011;27404;52.398;9.646;2023-12-20T11:27:15;9.80;;;3.57;;
8159;SDS011;27404;52.398;9.646;2023-12-20T11:29:41;12.43;;;3.63;;
8159;SDS011;27404;52.398;9.646;2023-12-20T11:34:54;10.93;;;3.37;;
8159;SDS011;27404;52.398;9.646;2023-12-20T11:37:21;13.80;;;4.50;;
8159;SDS011;27404;52.398;9.646;2023-12-20T11:39:56;11.43;;;3.63;;
8159;SDS011;27404;52.398;9.646;2023-12-20T11:42:25;12.83;;;3.53;;
8159;SDS011;27404;52.398;9.646;2023-12-20T11:44:51;5.80;;;2.00;;
8159;SDS011;27404;52.398;9.646;2023-12-20T11:47:17;6.33;;;1.40;;
8159;SDS011;27404;52.398;9.646;2023-12-20T11:49:44;3.30;;;1.10;;
8159;SDS011;27404;52.398;9.646;2023-12-20T11:52:12;8.27;;;1.07;;
8159;SDS011;27404;52.398;9.646;2023-12-20T11:54:38;4.87;;;1.10;;
8159;SDS011;27404;52.398;9.646;2023-12-20T11:57:03;4.53;;;0.90;;
8159;SDS011;27404;52.398;9.646;2023-12-20T11:59:30;4.13;;;0.97;;
8159;SDS011;27404;52.398;9.646;2023-12-20T12:01:56;2.63;;;0.80;;
8159;SDS011;27404;52.398;9.646;2023-12-20T12:04:25;4.87;;;0.70;;
8159;SDS011;27404;52.398;9.646;2023-12-20T12:06:54;4.73;;;0.70;;
8159;SDS011;27404;52.398;9.646;2023-12-20T12:09:19;4.67;;;0.80;;
8159;SDS011;27404;52.398;9.646;2023-12-20T12:11:44;5.50;;;0.73;;
8159;SDS011;27404;52.398;9.646;2023-12-20T12:14:10;1.40;;;0.63;;
8159;SDS011;27404;52.398;9.646;2023-12-20T12:16:36;5.20;;;1.33;;
8159;SDS011;27404;52.398;9.646;2023-12-20T12:19:02;4.57;;;1.60;;
8159;SDS011;27404;52.398;9.646;2023-12-20T12:21:27;5.40;;;0.90;;
8159;SDS011;27404;52.398;9.646;2023-12-20T12:23:53;2.53;;;0.50;;
8159;SDS011;27404;52.398;9.646;2023-12-20T12:26:18;3.70;;;0.60;;
8159;SDS011;27404;52.398;9.646;2023-12-20T12:28:44;3.30;;;0.60;;
8159;SDS011;27404;52.398;9.646;2023-12-20T12:31:15;5.40;;;0.77;;
8159;SDS011;27404;52.398;9.646;2023-12-20T12:33:41;3.20;;;0.60;;
8159;SDS011;27404;52.398;9.646;2023-12-20T12:36:07;4.63;;;0.80;;
8159;SDS011;27404;52.398;9.646;2023-12-20T12:38:32;2.83;;;0.90;;
8159;SDS011;27404;52.398;9.646;2023-12-20T12:40:59;2.10;;;0.80;;
8159;SDS011;27404;52.398;9.646;2023-12-20T12:43:25;3.97;;;0.90;;
8159;SDS011;27404;52.398;9.646;2023-12-20T12:45:51;3.77;;;0.73;;
8159;SDS011;27404;52.398;9.646;2023-12-20T12:48:16;3.33;;;0.83;;
8159;SDS011;27404;52.398;9.646;2023-12-20T12:50:42;2.33;;;0.83;;
8159;SDS011;27404;52.398;9.646;2023-12-20T12:53:08;6.40;;;0.80;;
8159;SDS011;27404;52.398;9.646;2023-12-20T12:55:34;8.90;;;1.57;;
8159;SDS011;27404;52.398;9.646;2023-12-20T12:58:00;4.63;;;1.00;;
8159;SDS011;27404;52.398;9.646;2023-12-20T13:00:25;5.33;;;0.90;;
8159;SDS011;27404;52.398;9.646;2023-12-20T13:02:51;11.03;;;1.27;;
8159;SDS011;27404;52.398;9.646;2023-12-20T13:05:16;3.63;;;0.87;;
8159;SDS011;27404;52.398;9.646;2023-12-20T13:07:43;4.73;;;1.20;;
8159;SDS011;27404;52.398;9.646;2023-12-20T13:10:10;4.43;;;1.10;;
8159;SDS011;27404;52.398;9.646;2023-12-20T13:12:36;2.70;;;0.83;;
8159;SDS011;27404;52.398;9.646;2023-12-20T13:15:01;3.97;;;1.40;;
8159;SDS011;27404;52.398;9.646;2023-12-20T13:17:28;4.53;;;0.90;;
8159;SDS011;27404;52.398;9.646;2023-12-20T13:19:54;5.63;;;1.03;;
8159;SDS011;27404;52.398;9.646;2023-12-20T13:22:20;3.33;;;1.00;;
8159;SDS011;27404;52.398;9.646;2023-12-20T13:24:45;6.03;;;1.00;;
8159;SDS011;27404;52.398;9.646;2023-12-20T13:27:11;3.53;;;0.90;;
8159;SDS011;27404;52.398;9.646;2023-12-20T13:29:36;3.50;;;0.90;;
8159;SDS011;27404;52.398;9.646;2023-12-20T13:32:01;4.83;;;1.10;;
8159;SDS011;27404;52.398;9.646;2023-12-20T13:34:28;4.40;;;0.77;;
8159;SDS011;27404;52.398;9.646;2023-12-20T13:36:54;3.87;;;0.90;;
8159;SDS011;27404;52.398;9.646;2023-12-20T13:39:20;4.23;;;1.00;;
8159;SDS011;27404;52.398;9.646;2023-12-20T13:41:46;4.10;;;1.00;;
8159;SDS011;27404;52.398;9.646;2023-12-20T13:44:12;3.83;;;0.93;;
8159;SDS011;27404;52.398;9.646;2023-12-20T13:46:38;4.03;;;0.90;;
8159;SDS011;27404;52.398;9.646;2023-12-20T13:49:05;3.70;;;0.97;;
8159;SDS011;27404;52.398;9.646;2023-12-20T13:51:30;4.47;;;0.80;;
8159;SDS011;27404;52.398;9.646;2023-12-20T13:53:56;5.07;;;1.10;;
8159;SDS011;27404;52.398;9.646;2023-12-20T13:56:22;5.57;;;1.10;;
8159;SDS011;27404;52.398;9.646;2023-12-20T13:58:48;7.17;;;1.27;;
8159;SDS011;27404;52.398;9.646;2023-12-20T14:01:14;7.63;;;1.40;;
8159;SDS011;27404;52.398;9.646;2023-12-20T14:03:39;6.60;;;1.20;;
8159;SDS011;27404;52.398;9.646;2023-12-20T14:06:06;7.17;;;1.27;;
8159;SDS011;27404;52.398;9.646;2023-12-20T14:08:31;5.23;;;1.60;;
8159;SDS011;27404;52.398;9.646;2023-12-20T14:10:57;4.43;;;1.20;;
8159;SDS011;27404;52.398;9.646;2023-12-20T14:13:22;8.20;;;1.40;;
8159;SDS011;27404;52.398;9.646;2023-12-20T14:15:48;3.17;;;1.30;;
8159;SDS011;27404;52.398;9.646;2023-12-20T14:18:14;7.27;;;1.30;;
8159;SDS011;27404;52.398;9.646;2023-12-20T14:20:40;4.13;;;1.50;;
8159;SDS011;27404;52.398;9.646;2023-12-20T14:23:07;3.87;;;1.30;;
8159;SDS011;27404;52.398;9.646;2023-12-20T14:25:34;4.53;;;1.70;;
8159;SDS011;27404;52.398;9.646;2023-12-20T14:28:02;6.67;;;1.20;;
8159;SDS011;27404;52.398;9.646;2023-12-20T14:30:28;5.40;;;1.80;;
8159;SDS011;27404;52.398;9.646;2023-12-20T14:32:53;6.13;;;1.93;;
8159;SDS011;27404;52.398;9.646;2023-12-20T14:35:19;9.13;;;1.70;;
8159;SDS011;27404;52.398;9.646;2023-12-20T14:37:44;5.97;;;1.30;;
8159;SDS011;27404;52.398;9.646;2023-12-20T14:40:10;6.33;;;1.60;;
8159;SDS011;27404;52.398;9.646;2023-12-20T14:42:40;6.80;;;1.67;;
8159;SDS011;27404;52.398;9.646;2023-12-20T14:45:06;4.83;;;1.40;;
8159;SDS011;27404;52.398;9.646;2023-12-20T14:47:32;5.13;;;1.37;;
8159;SDS011;27404;52.398;9.646;2023-12-20T14:49:58;8.07;;;1.13;;
8159;SDS011;27404;52.398;9.646;2023-12-20T14:52:23;6.50;;;1.30;;
8159;SDS011;27404;52.398;9.646;2023-12-20T14:54:49;7.47;;;1.30;;